sensor_id;sensor_type;location;lat;lon;timestamp;P1;durP1;ratioP1;P2;durP2;ratioP2
18983;SDS011;9626;52.552;13.436;2024-01-16T00:00:07;3.27;;;1.20;;
18983;SDS011;9626;52.552;13.436;2024-01-16T00:02:34;5.17;;;1.00;;
18983;SDS011;9626;52.552;13.436;2024-01-16T00:05:00;8.40;;;1.50;;
18983;SDS011;9626;52.552;13.436;2024-01-16T00:07:26;4.97;;;1.10;;
18983;SDS011;9626;52.552;13.436;2024-01-16T00:09:52;5.67;;;1.30;;
18983;SDS011;9626;52.552;13.436;2024-01-16T00:12:20;3.63;;;1.20;;
18983;SDS011;9626;52.552;13.436;2024-01-16T00:14:46;2.50;;;0.93;;
18983;SDS011;9626;52.552;13.436;2024-01-16T00:17:12;3.47;;;1.27;;
18983;SDS011;9626;52.552;13.436;2024-01-16T00:19:38;5.23;;;1.40;;
18983;SDS011;9626;52.552;13.436;2024-01-16T00:22:04;3.37;;;1.10;;
18983;SDS011;9626;52.552;13.436;2024-01-16T00:24:30;3.73;;;1.30;;
18983;SDS011;9626;52.552;13.436;2024-01-16T00:26:56;2.37;;;1.10;;
18983;SDS011;9626;52.552;13.436;2024-01-16T00:29:22;2.27;;;1.27;;
18983;SDS011;9626;52.552;13.436;2024-01-16T00:31:49;4.40;;;1.47;;
18983;SDS011;9626;52.552;13.436;2024-01-16T00:34:15;5.97;;;1.33;;
18983;SDS011;9626;52.552;13.436;2024-01-16T00:36:41;1.77;;;1.00;;
18983;SDS011;9626;52.552;13.436;2024-01-16T00:39:07;5.73;;;1.67;;
18983;SDS011;9626;52.552;13.436;2024-01-16T00:41:33;4.30;;;1.37;;
18983;SDS011;9626;52.552;13.436;2024-01-16T00:43:59;1.73;;;1.20;;
18983;SDS011;9626;52.552;13.436;2024-01-16T00:46:25;2.83;;;1.30;;
18983;SDS011;9626;52.552;13.436;2024-01-16T00:48:51;4.00;;;1.20;;
18983;SDS011;9626;52.552;13.436;2024-01-16T00:51:17;3.03;;;1.20;;
18983;SDS011;9626;52.552;13.436;2024-01-16T00:53:43;2.10;;;1.20;;
18983;SDS011;9626;52.552;13.436;2024-01-16T00:56:10;3.73;;;1.13;;
18983;SDS011;9626;52.552;13.436;2024-01-16T00:58:38;2.63;;;1.07;;
18983;SDS011;9626;52.552;13.436;2024-01-16T01:01:04;2.73;;;0.90;;
18983;SDS011;9626;52.552;13.436;2024-01-16T01:03:30;2.47;;;1.30;;
18983;SDS011;9626;52.552;13.436;2024-01-16T01:05:56;5.17;;;1.13;;
18983;SDS011;9626;52.552;13.436;2024-01-16T01:08:22;1.10;;;0.87;;
18983;SDS011;9626;52.552;13.436;2024-01-16T01:10:49;3.83;;;1.33;;
18983;SDS011;9626;52.552;13.436;2024-01-16T01:13:15;2.67;;;1.60;;
18983;SDS011;9626;52.552;13.436;2024-01-16T01:15:41;1.27;;;0.87;;
18983;SDS011;9626;52.552;13.436;2024-01-16T01:18:07;1.57;;;1.00;;
18983;SDS011;9626;52.552;13.436;2024-01-16T01:20:33;1.00;;;0.80;;
18983;SDS011;9626;52.552;13.436;2024-01-16T01:23:00;1.07;;;0.60;;
18983;SDS011;9626;52.552;13.436;2024-01-16T01:25:26;2.83;;;0.90;;
18983;SDS011;9626;52.552;13.436;2024-01-16T01:28:10;4.37;;;0.77;;
18983;SDS011;9626;52.552;13.436;2024-01-16T01:30:37;2.10;;;0.80;;
18983;SDS011;9626;52.552;13.436;2024-01-16T01:33:03;4.10;;;0.70;;
18983;SDS011;9626;52.552;13.436;2024-01-16T01:35:29;3.97;;;0.83;;
18983;SDS011;9626;52.552;13.436;2024-01-16T01:37:55;3.87;;;0.90;;
18983;SDS011;9626;52.552;13.436;2024-01-16T01:40:21;1.30;;;1.00;;
18983;SDS011;9626;52.552;13.436;2024-01-16T01:42:47;1.63;;;0.87;;
18983;SDS011;9626;52.552;13.436;2024-01-16T01:45:13;3.97;;;0.90;;
18983;SDS011;9626;52.552;13.436;2024-01-16T01:47:39;1.07;;;0.53;;
18983;SDS011;9626;52.552;13.436;2024-01-16T01:50:08;3.13;;;1.00;;
18983;SDS011;9626;52.552;13.436;2024-01-16T01:52:35;4.20;;;0.87;;
18983;SDS011;9626;52.552;13.436;2024-01-16T01:55:10;3.70;;;0.77;;
18983;SDS011;9626;52.552;13.436;2024-01-16T01:57:38;3.70;;;0.80;;
18983;SDS011;9626;52.552;13.436;2024-01-16T02:00:05;2.00;;;0.90;;
18983;SDS011;9626;52.552;13.436;2024-01-16T02:02:32;1.90;;;0.90;;
18983;SDS011;9626;52.552;13.436;2024-01-16T02:04:59;4.27;;;0.80;;
18983;SDS011;9626;52.552;13.436;2024-01-16T02:07:25;1.40;;;0.90;;
18983;SDS011;9626;52.552;13.436;2024-01-16T02:09:51;1.47;;;0.73;;
18983;SDS011;9626;52.552;13.436;2024-01-16T02:12:17;1.30;;;0.90;;
18983;SDS011;9626;52.552;13.436;2024-01-16T02:14:43;1.30;;;0.63;;
18983;SDS011;9626;52.552;13.436;2024-01-16T02:17:09;1.33;;;1.00;;
18983;SDS011;9626;52.552;13.436;2024-01-16T02:19:36;3.37;;;1.13;;
18983;SDS011;9626;52.552;13.436;2024-01-16T02:22:03;1.47;;;0.90;;
18983;SDS011;9626;52.552;13.436;2024-01-16T02:24:31;3.53;;;1.27;;
18983;SDS011;9626;52.552;13.436;2024-01-16T02:26:57;3.43;;;1.03;;
18983;SDS011;9626;52.552;13.436;2024-01-16T02:29:23;3.40;;;0.97;;
18983;SDS011;9626;52.552;13.436;2024-01-16T02:31:50;1.30;;;0.97;;
18983;SDS011;9626;52.552;13.436;2024-01-16T02:34:16;6.03;;;3.13;;
18983;SDS011;9626;52.552;13.436;2024-01-16T02:36:42;4.00;;;1.17;;
18983;SDS011;9626;52.552;13.436;2024-01-16T02:39:08;2.37;;;1.10;;
18983;SDS011;9626;52.552;13.436;2024-01-16T02:41:33;3.43;;;1.20;;
18983;SDS011;9626;52.552;13.436;2024-01-16T02:43:59;2.90;;;1.30;;
18983;SDS011;9626;52.552;13.436;2024-01-16T02:46:25;2.00;;;1.37;;
18983;SDS011;9626;52.552;13.436;2024-01-16T02:48:51;3.13;;;1.27;;
18983;SDS011;9626;52.552;13.436;2024-01-16T02:51:17;1.47;;;1.30;;
18983;SDS011;9626;52.552;13.436;2024-01-16T02:53:43;2.07;;;1.23;;
18983;SDS011;9626;52.552;13.436;2024-01-16T02:56:09;2.30;;;1.00;;
18983;SDS011;9626;52.552;13.436;2024-01-16T02:58:35;2.97;;;1.20;;
18983;SDS011;9626;52.552;13.436;2024-01-16T03:01:02;4.37;;;1.20;;
18983;SDS011;9626;52.552;13.436;2024-01-16T03:03:28;2.33;;;1.17;;
18983;SDS011;9626;52.552;13.436;2024-01-16T03:05:54;4.37;;;1.20;;
18983;SDS011;9626;52.552;13.436;2024-01-16T03:08:21;3.13;;;1.20;;
18983;SDS011;9626;52.552;13.436;2024-01-16T03:10:47;6.53;;;2.30;;
18983;SDS011;9626;52.552;13.436;2024-01-16T03:13:13;3.23;;;2.00;;
18983;SDS011;9626;52.552;13.436;2024-01-16T03:15:39;16.00;;;10.40;;
18983;SDS011;9626;52.552;13.436;2024-01-16T03:18:06;9.87;;;6.43;;
18983;SDS011;9626;52.552;13.436;2024-01-16T03:20:32;7.57;;;4.30;;
18983;SDS011;9626;52.552;13.436;2024-01-16T03:22:58;7.60;;;4.13;;
18983;SDS011;9626;52.552;13.436;2024-01-16T03:25:24;6.63;;;2.93;;
18983;SDS011;9626;52.552;13.436;2024-01-16T03:27:50;5.00;;;2.33;;
18983;SDS011;9626;52.552;13.436;2024-01-16T03:30:16;7.53;;;2.07;;
18983;SDS011;9626;52.552;13.436;2024-01-16T03:32:42;2.60;;;1.37;;
18983;SDS011;9626;52.552;13.436;2024-01-16T03:35:09;2.37;;;1.50;;
18983;SDS011;9626;52.552;13.436;2024-01-16T03:37:35;4.47;;;1.30;;
18983;SDS011;9626;52.552;13.436;2024-01-16T03:40:03;2.93;;;1.50;;
18983;SDS011;9626;52.552;13.436;2024-01-16T03:42:29;3.83;;;1.83;;
18983;SDS011;9626;52.552;13.436;2024-01-16T03:44:55;4.27;;;1.33;;
18983;SDS011;9626;52.552;13.436;2024-01-16T03:47:21;3.33;;;1.33;;
18983;SDS011;9626;52.552;13.436;2024-01-16T03:49:47;2.67;;;1.40;;
18983;SDS011;9626;52.552;13.436;2024-01-16T03:52:13;2.40;;;1.47;;
18983;SDS011;9626;52.552;13.436;2024-01-16T03:54:39;3.47;;;1.50;;
18983;SDS011;9626;52.552;13.436;2024-01-16T03:57:05;2.63;;;1.40;;
18983;SDS011;9626;52.552;13.436;2024-01-16T03:59:31;3.67;;;1.40;;
18983;SDS011;9626;52.552;13.436;2024-01-16T04:01:57;4.03;;;1.50;;
18983;SDS011;9626;52.552;13.436;2024-01-16T04:04:23;6.20;;;1.60;;
18983;SDS011;9626;52.552;13.436;2024-01-16T04:06:49;5.00;;;1.50;;
18983;SDS011;9626;52.552;13.436;2024-01-16T04:09:15;3.33;;;1.60;;
18983;SDS011;9626;52.552;13.436;2024-01-16T04:11:41;5.77;;;1.67;;
18983;SDS011;9626;52.552;13.436;2024-01-16T04:14:07;3.33;;;1.37;;
18983;SDS011;9626;52.552;13.436;2024-01-16T04:16:33;3.07;;;1.53;;
18983;SDS011;9626;52.552;13.436;2024-01-16T04:18:59;3.27;;;1.20;;
18983;SDS011;9626;52.552;13.436;2024-01-16T04:21:25;3.17;;;1.53;;
18983;SDS011;9626;52.552;13.436;2024-01-16T04:23:51;2.40;;;1.33;;
18983;SDS011;9626;52.552;13.436;2024-01-16T04:26:17;1.87;;;1.17;;
18983;SDS011;9626;52.552;13.436;2024-01-16T04:28:44;3.03;;;1.40;;
18983;SDS011;9626;52.552;13.436;2024-01-16T04:31:10;2.87;;;1.57;;
18983;SDS011;9626;52.552;13.436;2024-01-16T04:33:41;3.23;;;1.83;;
18983;SDS011;9626;52.552;13.436;2024-01-16T04:36:07;4.80;;;1.53;;
18983;SDS011;9626;52.552;13.436;2024-01-16T04:38:33;2.87;;;1.90;;
18983;SDS011;9626;52.552;13.436;2024-01-16T04:41:02;1.93;;;1.23;;
18983;SDS011;9626;52.552;13.436;2024-01-16T04:43:29;4.80;;;1.87;;
18983;SDS011;9626;52.552;13.436;2024-01-16T04:45:55;2.00;;;1.40;;
18983;SDS011;9626;52.552;13.436;2024-01-16T04:48:21;2.70;;;1.40;;
18983;SDS011;9626;52.552;13.436;2024-01-16T04:50:47;6.40;;;1.97;;
18983;SDS011;9626;52.552;13.436;2024-01-16T04:53:13;3.23;;;1.37;;
18983;SDS011;9626;52.552;13.436;2024-01-16T04:55:39;3.80;;;1.80;;
18983;SDS011;9626;52.552;13.436;2024-01-16T04:58:05;2.67;;;1.60;;
18983;SDS011;9626;52.552;13.436;2024-01-16T05:00:31;5.33;;;1.83;;
18983;SDS011;9626;52.552;13.436;2024-01-16T05:02:57;2.13;;;1.40;;
18983;SDS011;9626;52.552;13.436;2024-01-16T05:05:23;3.17;;;1.57;;
18983;SDS011;9626;52.552;13.436;2024-01-16T05:07:49;2.80;;;1.60;;
18983;SDS011;9626;52.552;13.436;2024-01-16T05:10:15;4.17;;;1.83;;
18983;SDS011;9626;52.552;13.436;2024-01-16T05:12:41;5.77;;;1.73;;
18983;SDS011;9626;52.552;13.436;2024-01-16T05:15:07;2.60;;;1.60;;
18983;SDS011;9626;52.552;13.436;2024-01-16T05:17:34;2.90;;;1.80;;
18983;SDS011;9626;52.552;13.436;2024-01-16T05:20:01;4.33;;;1.97;;
18983;SDS011;9626;52.552;13.436;2024-01-16T05:22:30;4.83;;;2.10;;
18983;SDS011;9626;52.552;13.436;2024-01-16T05:24:56;7.00;;;2.43;;
18983;SDS011;9626;52.552;13.436;2024-01-16T05:27:22;3.40;;;2.30;;
18983;SDS011;9626;52.552;13.436;2024-01-16T05:29:48;2.67;;;2.00;;
18983;SDS011;9626;52.552;13.436;2024-01-16T05:32:14;3.80;;;2.30;;
18983;SDS011;9626;52.552;13.436;2024-01-16T05:34:40;3.57;;;1.80;;
18983;SDS011;9626;52.552;13.436;2024-01-16T05:37:06;3.53;;;1.70;;
18983;SDS011;9626;52.552;13.436;2024-01-16T05:39:32;4.03;;;2.13;;
18983;SDS011;9626;52.552;13.436;2024-01-16T05:41:58;3.47;;;2.20;;
18983;SDS011;9626;52.552;13.436;2024-01-16T05:44:24;6.00;;;2.00;;
18983;SDS011;9626;52.552;13.436;2024-01-16T05:46:50;3.77;;;2.00;;
18983;SDS011;9626;52.552;13.436;2024-01-16T05:49:16;2.77;;;1.87;;
18983;SDS011;9626;52.552;13.436;2024-01-16T05:51:42;3.97;;;1.90;;
18983;SDS011;9626;52.552;13.436;2024-01-16T05:54:08;3.23;;;2.03;;
18983;SDS011;9626;52.552;13.436;2024-01-16T05:56:34;3.53;;;2.30;;
18983;SDS011;9626;52.552;13.436;2024-01-16T05:59:00;3.13;;;2.10;;
18983;SDS011;9626;52.552;13.436;2024-01-16T06:01:26;4.93;;;2.20;;
18983;SDS011;9626;52.552;13.436;2024-01-16T06:03:55;4.10;;;2.60;;
18983;SDS011;9626;52.552;13.436;2024-01-16T06:06:21;2.70;;;2.13;;
18983;SDS011;9626;52.552;13.436;2024-01-16T06:08:47;5.23;;;2.03;;
18983;SDS011;9626;52.552;13.436;2024-01-16T06:11:13;4.57;;;2.17;;
18983;SDS011;9626;52.552;13.436;2024-01-16T06:13:40;4.37;;;2.30;;
18983;SDS011;9626;52.552;13.436;2024-01-16T06:16:06;4.93;;;2.80;;
18983;SDS011;9626;52.552;13.436;2024-01-16T06:18:34;10.80;;;3.80;;
18983;SDS011;9626;52.552;13.436;2024-01-16T06:21:01;8.47;;;3.07;;
18983;SDS011;9626;52.552;13.436;2024-01-16T06:23:28;5.67;;;2.43;;
18983;SDS011;9626;52.552;13.436;2024-01-16T06:25:54;8.27;;;3.00;;
18983;SDS011;9626;52.552;13.436;2024-01-16T06:28:20;6.13;;;2.80;;
18983;SDS011;9626;52.552;13.436;2024-01-16T06:30:46;5.20;;;2.77;;
18983;SDS011;9626;52.552;13.436;2024-01-16T06:33:12;9.50;;;2.63;;
18983;SDS011;9626;52.552;13.436;2024-01-16T06:35:38;7.97;;;2.43;;
18983;SDS011;9626;52.552;13.436;2024-01-16T06:38:04;5.90;;;2.67;;
18983;SDS011;9626;52.552;13.436;2024-01-16T06:40:30;4.07;;;2.23;;
18983;SDS011;9626;52.552;13.436;2024-01-16T06:42:56;6.10;;;2.30;;
18983;SDS011;9626;52.552;13.436;2024-01-16T06:45:22;4.40;;;2.37;;
18983;SDS011;9626;52.552;13.436;2024-01-16T06:47:48;6.73;;;2.30;;
18983;SDS011;9626;52.552;13.436;2024-01-16T06:50:14;7.23;;;2.77;;
18983;SDS011;9626;52.552;13.436;2024-01-16T06:52:40;8.00;;;2.57;;
18983;SDS011;9626;52.552;13.436;2024-01-16T06:55:06;5.90;;;2.80;;
18983;SDS011;9626;52.552;13.436;2024-01-16T06:57:32;6.23;;;2.40;;
18983;SDS011;9626;52.552;13.436;2024-01-16T06:59:58;5.83;;;2.30;;
18983;SDS011;9626;52.552;13.436;2024-01-16T07:02:24;3.70;;;2.43;;
18983;SDS011;9626;52.552;13.436;2024-01-16T07:04:51;3.80;;;2.60;;
18983;SDS011;9626;52.552;13.436;2024-01-16T07:07:19;5.43;;;2.40;;
18983;SDS011;9626;52.552;13.436;2024-01-16T07:09:45;6.13;;;2.87;;
18983;SDS011;9626;52.552;13.436;2024-01-16T07:12:11;4.17;;;2.30;;
18983;SDS011;9626;52.552;13.436;2024-01-16T07:14:37;7.23;;;3.03;;
18983;SDS011;9626;52.552;13.436;2024-01-16T07:17:05;4.97;;;2.03;;
18983;SDS011;9626;52.552;13.436;2024-01-16T07:19:33;6.43;;;2.50;;
18983;SDS011;9626;52.552;13.436;2024-01-16T07:21:59;6.60;;;2.40;;
18983;SDS011;9626;52.552;13.436;2024-01-16T07:24:25;9.53;;;2.20;;
18983;SDS011;9626;52.552;13.436;2024-01-16T07:26:51;3.13;;;1.80;;
18983;SDS011;9626;52.552;13.436;2024-01-16T07:29:17;4.50;;;2.30;;
18983;SDS011;9626;52.552;13.436;2024-01-16T07:31:44;28.90;;;3.47;;
18983;SDS011;9626;52.552;13.436;2024-01-16T07:34:10;27.87;;;3.37;;
18983;SDS011;9626;52.552;13.436;2024-01-16T07:36:36;6.20;;;2.90;;
18983;SDS011;9626;52.552;13.436;2024-01-16T07:39:02;24.07;;;4.13;;
18983;SDS011;9626;52.552;13.436;2024-01-16T07:41:29;24.00;;;3.77;;
18983;SDS011;9626;52.552;13.436;2024-01-16T07:43:55;25.30;;;4.23;;
18983;SDS011;9626;52.552;13.436;2024-01-16T07:46:21;4.63;;;2.17;;
18983;SDS011;9626;52.552;13.436;2024-01-16T07:48:47;14.60;;;3.27;;
18983;SDS011;9626;52.552;13.436;2024-01-16T07:51:13;7.70;;;2.90;;
18983;SDS011;9626;52.552;13.436;2024-01-16T07:53:39;8.70;;;3.07;;
18983;SDS011;9626;52.552;13.436;2024-01-16T07:56:05;7.47;;;1.80;;
18983;SDS011;9626;52.552;13.436;2024-01-16T07:58:32;5.77;;;2.40;;
18983;SDS011;9626;52.552;13.436;2024-01-16T08:00:58;10.50;;;2.67;;
18983;SDS011;9626;52.552;13.436;2024-01-16T08:03:24;19.73;;;4.03;;
18983;SDS011;9626;52.552;13.436;2024-01-16T08:05:49;14.73;;;3.77;;
18983;SDS011;9626;52.552;13.436;2024-01-16T08:08:16;8.00;;;2.40;;
18983;SDS011;9626;52.552;13.436;2024-01-16T08:10:42;6.53;;;2.93;;
18983;SDS011;9626;52.552;13.436;2024-01-16T08:13:08;8.90;;;2.30;;
18983;SDS011;9626;52.552;13.436;2024-01-16T08:15:34;4.50;;;2.30;;
18983;SDS011;9626;52.552;13.436;2024-01-16T08:18:00;11.73;;;2.60;;
18983;SDS011;9626;52.552;13.436;2024-01-16T08:20:26;15.77;;;6.40;;
18983;SDS011;9626;52.552;13.436;2024-01-16T08:22:52;23.00;;;5.90;;
18983;SDS011;9626;52.552;13.436;2024-01-16T08:25:19;53.13;;;6.77;;
18983;SDS011;9626;52.552;13.436;2024-01-16T08:27:45;8.83;;;2.77;;
18983;SDS011;9626;52.552;13.436;2024-01-16T08:30:11;20.47;;;4.63;;
18983;SDS011;9626;52.552;13.436;2024-01-16T08:32:38;8.77;;;3.20;;
18983;SDS011;9626;52.552;13.436;2024-01-16T08:35:04;14.83;;;4.03;;
18983;SDS011;9626;52.552;13.436;2024-01-16T08:37:32;17.00;;;4.17;;
18983;SDS011;9626;52.552;13.436;2024-01-16T08:39:58;4.70;;;3.00;;
18983;SDS011;9626;52.552;13.436;2024-01-16T08:42:24;6.93;;;3.20;;
18983;SDS011;9626;52.552;13.436;2024-01-16T08:44:50;8.47;;;3.63;;
18983;SDS011;9626;52.552;13.436;2024-01-16T08:47:16;7.63;;;3.77;;
18983;SDS011;9626;52.552;13.436;2024-01-16T08:49:42;8.20;;;3.07;;
18983;SDS011;9626;52.552;13.436;2024-01-16T08:52:09;7.13;;;3.93;;
18983;SDS011;9626;52.552;13.436;2024-01-16T08:54:35;5.63;;;3.40;;
18983;SDS011;9626;52.552;13.436;2024-01-16T08:57:01;7.93;;;3.97;;
18983;SDS011;9626;52.552;13.436;2024-01-16T08:59:28;6.30;;;3.60;;
18983;SDS011;9626;52.552;13.436;2024-01-16T09:01:54;6.57;;;3.80;;
18983;SDS011;9626;52.552;13.436;2024-01-16T09:04:19;8.50;;;3.60;;
18983;SDS011;9626;52.552;13.436;2024-01-16T09:06:45;51.27;;;6.97;;
18983;SDS011;9626;52.552;13.436;2024-01-16T09:09:11;7.20;;;3.70;;
18983;SDS011;9626;52.552;13.436;2024-01-16T09:11:38;17.10;;;4.20;;
18983;SDS011;9626;52.552;13.436;2024-01-16T09:14:04;11.63;;;4.73;;
18983;SDS011;9626;52.552;13.436;2024-01-16T09:16:30;9.63;;;4.00;;
18983;SDS011;9626;52.552;13.436;2024-01-16T09:18:56;18.30;;;4.80;;
18983;SDS011;9626;52.552;13.436;2024-01-16T09:21:22;9.23;;;4.23;;
18983;SDS011;9626;52.552;13.436;2024-01-16T09:23:48;16.07;;;5.10;;
18983;SDS011;9626;52.552;13.436;2024-01-16T09:26:14;15.60;;;4.67;;
18983;SDS011;9626;52.552;13.436;2024-01-16T09:28:40;13.03;;;4.93;;
18983;SDS011;9626;52.552;13.436;2024-01-16T09:31:06;8.80;;;4.60;;
18983;SDS011;9626;52.552;13.436;2024-01-16T09:33:33;12.67;;;4.33;;
18983;SDS011;9626;52.552;13.436;2024-01-16T09:36:00;9.27;;;4.43;;
18983;SDS011;9626;52.552;13.436;2024-01-16T09:38:26;12.10;;;5.37;;
18983;SDS011;9626;52.552;13.436;2024-01-16T09:40:52;22.27;;;6.10;;
18983;SDS011;9626;52.552;13.436;2024-01-16T09:43:22;19.20;;;5.70;;
18983;SDS011;9626;52.552;13.436;2024-01-16T09:45:48;11.23;;;5.77;;
18983;SDS011;9626;52.552;13.436;2024-01-16T09:48:15;25.70;;;11.03;;
18983;SDS011;9626;52.552;13.436;2024-01-16T09:50:41;12.90;;;7.77;;
18983;SDS011;9626;52.552;13.436;2024-01-16T09:53:07;7.17;;;4.37;;
18983;SDS011;9626;52.552;13.436;2024-01-16T09:55:33;19.47;;;14.17;;
18983;SDS011;9626;52.552;13.436;2024-01-16T09:57:59;10.13;;;4.63;;
18983;SDS011;9626;52.552;13.436;2024-01-16T10:00:29;7.10;;;4.13;;
18983;SDS011;9626;52.552;13.436;2024-01-16T10:02:56;8.57;;;6.53;;
18983;SDS011;9626;52.552;13.436;2024-01-16T10:05:24;9.40;;;4.80;;
18983;SDS011;9626;52.552;13.436;2024-01-16T10:07:51;5.67;;;3.70;;
18983;SDS011;9626;52.552;13.436;2024-01-16T10:10:17;19.40;;;6.00;;
18983;SDS011;9626;52.552;13.436;2024-01-16T10:12:44;8.80;;;3.73;;
18983;SDS011;9626;52.552;13.436;2024-01-16T10:15:11;4.67;;;3.53;;
18983;SDS011;9626;52.552;13.436;2024-01-16T10:17:40;25.47;;;5.57;;
18983;SDS011;9626;52.552;13.436;2024-01-16T10:20:08;6.33;;;3.63;;
18983;SDS011;9626;52.552;13.436;2024-01-16T10:22:39;9.70;;;3.50;;
18983;SDS011;9626;52.552;13.436;2024-01-16T10:25:06;9.80;;;3.67;;
18983;SDS011;9626;52.552;13.436;2024-01-16T10:27:47;6.73;;;2.60;;
18983;SDS011;9626;52.552;13.436;2024-01-16T10:30:13;6.33;;;3.87;;
18983;SDS011;9626;52.552;13.436;2024-01-16T10:32:40;4.63;;;3.17;;
18983;SDS011;9626;52.552;13.436;2024-01-16T10:35:07;8.50;;;3.60;;
18983;SDS011;9626;52.552;13.436;2024-01-16T10:37:41;9.40;;;3.23;;
18983;SDS011;9626;52.552;13.436;2024-01-16T10:45:29;5.00;;;2.70;;
18983;SDS011;9626;52.552;13.436;2024-01-16T10:48:02;7.60;;;3.00;;
18983;SDS011;9626;52.552;13.436;2024-01-16T10:50:29;6.00;;;2.83;;
18983;SDS011;9626;52.552;13.436;2024-01-16T10:52:56;6.53;;;2.83;;
18983;SDS011;9626;52.552;13.436;2024-01-16T10:55:26;4.03;;;2.97;;
18983;SDS011;9626;52.552;13.436;2024-01-16T10:57:55;11.10;;;3.67;;
18983;SDS011;9626;52.552;13.436;2024-01-16T11:00:22;13.53;;;3.57;;
18983;SDS011;9626;52.552;13.436;2024-01-16T11:02:49;15.40;;;3.53;;
18983;SDS011;9626;52.552;13.436;2024-01-16T11:05:23;4.30;;;2.53;;
18983;SDS011;9626;52.552;13.436;2024-01-16T11:07:50;4.73;;;2.63;;
18983;SDS011;9626;52.552;13.436;2024-01-16T11:10:20;8.17;;;2.70;;
18983;SDS011;9626;52.552;13.436;2024-01-16T11:12:48;5.20;;;2.50;;
18983;SDS011;9626;52.552;13.436;2024-01-16T11:15:15;3.40;;;2.00;;
18983;SDS011;9626;52.552;13.436;2024-01-16T11:17:44;14.90;;;3.43;;
18983;SDS011;9626;52.552;13.436;2024-01-16T11:20:11;6.40;;;2.43;;
18983;SDS011;9626;52.552;13.436;2024-01-16T11:22:40;22.60;;;4.20;;
18983;SDS011;9626;52.552;13.436;2024-01-16T11:25:12;4.07;;;2.00;;
18983;SDS011;9626;52.552;13.436;2024-01-16T11:27:40;10.80;;;2.73;;
18983;SDS011;9626;52.552;13.436;2024-01-16T11:30:08;3.00;;;1.80;;
18983;SDS011;9626;52.552;13.436;2024-01-16T11:32:40;5.60;;;2.43;;
18983;SDS011;9626;52.552;13.436;2024-01-16T11:35:07;7.60;;;2.13;;
18983;SDS011;9626;52.552;13.436;2024-01-16T11:37:34;6.27;;;1.93;;
18983;SDS011;9626;52.552;13.436;2024-01-16T11:42:46;6.27;;;2.50;;
18983;SDS011;9626;52.552;13.436;2024-01-16T11:48:14;8.93;;;2.93;;
18983;SDS011;9626;52.552;13.436;2024-01-16T11:50:42;8.50;;;2.67;;
18983;SDS011;9626;52.552;13.436;2024-01-16T11:53:08;7.80;;;2.93;;
18983;SDS011;9626;52.552;13.436;2024-01-16T11:55:35;5.53;;;2.43;;
18983;SDS011;9626;52.552;13.436;2024-01-16T12:01:00;6.13;;;2.60;;
18983;SDS011;9626;52.552;13.436;2024-01-16T12:03:26;9.33;;;3.13;;
18983;SDS011;9626;52.552;13.436;2024-01-16T12:05:56;7.43;;;3.30;;
18983;SDS011;9626;52.552;13.436;2024-01-16T12:08:22;6.83;;;3.30;;
18983;SDS011;9626;52.552;13.436;2024-01-16T12:10:48;9.67;;;3.30;;
18983;SDS011;9626;52.552;13.436;2024-01-16T12:13:15;8.80;;;3.53;;
18983;SDS011;9626;52.552;13.436;2024-01-16T12:15:41;10.40;;;4.07;;
18983;SDS011;9626;52.552;13.436;2024-01-16T12:18:08;11.70;;;4.07;;
18983;SDS011;9626;52.552;13.436;2024-01-16T12:20:36;5.23;;;3.33;;
18983;SDS011;9626;52.552;13.436;2024-01-16T12:23:03;10.47;;;4.30;;
18983;SDS011;9626;52.552;13.436;2024-01-16T12:25:31;12.33;;;3.70;;
18983;SDS011;9626;52.552;13.436;2024-01-16T12:28:01;10.80;;;3.70;;
18983;SDS011;9626;52.552;13.436;2024-01-16T12:30:30;5.73;;;3.53;;
18983;SDS011;9626;52.552;13.436;2024-01-16T12:35:34;9.37;;;4.80;;
18983;SDS011;9626;52.552;13.436;2024-01-16T12:38:06;6.33;;;3.37;;
18983;SDS011;9626;52.552;13.436;2024-01-16T12:40:37;9.87;;;3.57;;
18983;SDS011;9626;52.552;13.436;2024-01-16T12:43:05;15.53;;;3.87;;
18983;SDS011;9626;52.552;13.436;2024-01-16T12:45:32;5.70;;;4.30;;
18983;SDS011;9626;52.552;13.436;2024-01-16T12:47:59;10.40;;;4.43;;
18983;SDS011;9626;52.552;13.436;2024-01-16T12:50:26;12.50;;;3.93;;
18983;SDS011;9626;52.552;13.436;2024-01-16T12:53:05;16.03;;;5.53;;
18983;SDS011;9626;52.552;13.436;2024-01-16T12:55:33;10.93;;;3.43;;
18983;SDS011;9626;52.552;13.436;2024-01-16T12:58:13;9.40;;;4.00;;
18983;SDS011;9626;52.552;13.436;2024-01-16T13:00:41;9.40;;;3.37;;
18983;SDS011;9626;52.552;13.436;2024-01-16T13:03:07;9.97;;;3.67;;
18983;SDS011;9626;52.552;13.436;2024-01-16T13:05:39;8.60;;;3.33;;
18983;SDS011;9626;52.552;13.436;2024-01-16T13:08:05;4.50;;;2.30;;
18983;SDS011;9626;52.552;13.436;2024-01-16T13:10:31;7.87;;;3.17;;
18983;SDS011;9626;52.552;13.436;2024-01-16T13:13:21;9.20;;;3.57;;
18983;SDS011;9626;52.552;13.436;2024-01-16T13:15:47;9.87;;;3.53;;
18983;SDS011;9626;52.552;13.436;2024-01-16T13:18:32;10.37;;;3.00;;
18983;SDS011;9626;52.552;13.436;2024-01-16T13:20:59;11.23;;;2.83;;
18983;SDS011;9626;52.552;13.436;2024-01-16T13:23:26;15.80;;;3.53;;
18983;SDS011;9626;52.552;13.436;2024-01-16T13:25:54;7.07;;;3.00;;
18983;SDS011;9626;52.552;13.436;2024-01-16T13:28:21;12.33;;;3.07;;
18983;SDS011;9626;52.552;13.436;2024-01-16T13:30:48;9.60;;;3.27;;
18983;SDS011;9626;52.552;13.436;2024-01-16T13:33:14;9.03;;;3.67;;
18983;SDS011;9626;52.552;13.436;2024-01-16T13:35:45;16.47;;;4.13;;
18983;SDS011;9626;52.552;13.436;2024-01-16T13:38:12;10.20;;;3.73;;
18983;SDS011;9626;52.552;13.436;2024-01-16T13:40:42;14.77;;;4.40;;
18983;SDS011;9626;52.552;13.436;2024-01-16T13:43:08;14.33;;;3.10;;
18983;SDS011;9626;52.552;13.436;2024-01-16T13:45:34;10.23;;;3.57;;
18983;SDS011;9626;52.552;13.436;2024-01-16T13:48:01;7.17;;;2.57;;
18983;SDS011;9626;52.552;13.436;2024-01-16T13:50:27;11.43;;;3.17;;
18983;SDS011;9626;52.552;13.436;2024-01-16T13:52:54;14.87;;;3.40;;
18983;SDS011;9626;52.552;13.436;2024-01-16T13:55:20;11.73;;;2.80;;
18983;SDS011;9626;52.552;13.436;2024-01-16T13:57:48;6.27;;;2.33;;
18983;SDS011;9626;52.552;13.436;2024-01-16T14:00:14;24.10;;;4.30;;
18983;SDS011;9626;52.552;13.436;2024-01-16T14:05:11;4.40;;;1.67;;
18983;SDS011;9626;52.552;13.436;2024-01-16T14:07:41;10.77;;;2.73;;
18983;SDS011;9626;52.552;13.436;2024-01-16T14:10:07;11.10;;;3.13;;
18983;SDS011;9626;52.552;13.436;2024-01-16T14:12:41;10.37;;;2.80;;
18983;SDS011;9626;52.552;13.436;2024-01-16T14:15:11;9.67;;;2.93;;
18983;SDS011;9626;52.552;13.436;2024-01-16T14:17:45;21.07;;;4.00;;
18983;SDS011;9626;52.552;13.436;2024-01-16T14:20:13;18.23;;;4.23;;
18983;SDS011;9626;52.552;13.436;2024-01-16T14:22:40;4.90;;;2.27;;
18983;SDS011;9626;52.552;13.436;2024-01-16T14:25:07;14.60;;;2.93;;
18983;SDS011;9626;52.552;13.436;2024-01-16T14:27:37;10.60;;;3.30;;
18983;SDS011;9626;52.552;13.436;2024-01-16T14:30:07;14.43;;;2.90;;
18983;SDS011;9626;52.552;13.436;2024-01-16T14:32:38;8.93;;;3.50;;
18983;SDS011;9626;52.552;13.436;2024-01-16T14:35:06;21.07;;;4.63;;
18983;SDS011;9626;52.552;13.436;2024-01-16T14:37:36;29.27;;;6.27;;
18983;SDS011;9626;52.552;13.436;2024-01-16T14:40:02;11.83;;;3.30;;
18983;SDS011;9626;52.552;13.436;2024-01-16T14:42:33;9.13;;;3.30;;
18983;SDS011;9626;52.552;13.436;2024-01-16T14:45:00;9.53;;;3.17;;
18983;SDS011;9626;52.552;13.436;2024-01-16T14:47:27;10.87;;;3.23;;
18983;SDS011;9626;52.552;13.436;2024-01-16T14:49:54;8.63;;;3.23;;
18983;SDS011;9626;52.552;13.436;2024-01-16T14:52:21;6.60;;;2.50;;
18983;SDS011;9626;52.552;13.436;2024-01-16T14:54:48;7.00;;;3.50;;
18983;SDS011;9626;52.552;13.436;2024-01-16T14:57:15;10.83;;;2.87;;
18983;SDS011;9626;52.552;13.436;2024-01-16T14:59:42;8.43;;;3.40;;
18983;SDS011;9626;52.552;13.436;2024-01-16T15:02:08;9.63;;;3.20;;